Terminal Aerodrome Forecast
Issued by NWS

Home | Current Version | Previous Version | Text Only | Print | Product List | Glossary On
Versions: 1 2 3 4 5 6 7 8 9 10 11 12 13 14 15 16
314
FTUS45 KRIW 301729
TAFCPR
TAF
KCPR 301729Z 3018/0118 23020G30KT P6SM SKC
     FM010000 23012KT P6SM SCT200
     FM010900 23010KT P6SM SCT070 BKN100
     FM011500 23010KT P6SM SCT040 BKN060=

USA.gov is the U.S. government's official web portal to all federal, state and local government web resources and services.